TimeCST,TemperatureF,Dew PointF,Humidity,Sea Level PressureIn,VisibilityMPH,Wind Direction,Wind SpeedMPH,Gust SpeedMPH,PrecipitationIn,Events,Conditions,WindDirDegrees,DateUTC
12:15 AM,32.0,23.0,69,29.94,10.0,Calm,Calm,-,N/A,,Clear,0,2014-01-01 06:15:00
12:35 AM,33.8,23.0,65,29.93,10.0,West,3.5,-,N/A,,Clear,260,2014-01-01 06:35:00
12:55 AM,32.0,23.0,69,29.92,10.0,SW,4.6,-,N/A,,Clear,230,2014-01-01 06:55:00
1:15 AM,33.8,23.0,65,29.92,10.0,Calm,Calm,-,N/A,,Clear,0,2014-01-01 07:15:00
1:35 AM,32.0,23.0,69,29.92,10.0,Calm,Calm,-,N/A,,Clear,0,2014-01-01 07:35:00
1:55 AM,32.0,23.0,69,29.91,10.0,SW,6.9,-,N/A,,Clear,230,2014-01-01 07:55:00
2:15 AM,28.4,23.0,80,29.91,10.0,WSW,6.9,-,N/A,,Clear,250,2014-01-01 08:15:00
2:35 AM,30.2,23.0,75,29.91,10.0,WSW,3.5,-,N/A,,Clear,250,2014-01-01 08:35:00
2:55 AM,30.2,23.0,75,29.90,10.0,Calm,Calm,-,N/A,,Clear,0,2014-01-01 08:55:00
3:15 AM,30.2,23.0,75,29.89,10.0,Calm,Calm,-,N/A,,Clear,0,2014-01-01 09:15:00
3:35 AM,26.6,21.2,80,29.88,10.0,West,6.9,-,N/A,,Clear,270,2014-01-01 09:35:00
3:55 AM,28.4,23.0,80,29.88,10.0,West,8.1,-,N/A,,Clear,260,2014-01-01 09:55:00
4:15 AM,28.4,23.0,80,29.87,10.0,WSW,6.9,-,N/A,,Clear,240,2014-01-01 10:15:00
4:35 AM,30.2,23.0,75,29.87,10.0,WSW,6.9,-,N/A,,Clear,250,2014-01-01 10:35:00
4:55 AM,30.2,23.0,75,29.87,10.0,West,9.2,-,N/A,,Clear,260,2014-01-01 10:55:00
5:15 AM,28.4,21.2,74,29.85,10.0,SW,9.2,-,N/A,,Clear,220,2014-01-01 11:15:00
5:35 AM,28.4,23.0,80,29.86,10.0,WSW,9.2,-,N/A,,Clear,240,2014-01-01 11:35:00
5:55 AM,28.4,23.0,80,29.85,10.0,SW,6.9,-,N/A,,Clear,230,2014-01-01 11:55:00
6:15 AM,26.6,23.0,86,29.85,10.0,SW,9.2,-,N/A,,Clear,230,2014-01-01 12:15:00
6:35 AM,28.4,23.0,80,29.85,10.0,SW,8.1,-,N/A,,Clear,230,2014-01-01 12:35:00
6:55 AM,26.6,23.0,86,29.85,10.0,SW,8.1,-,N/A,,Clear,220,2014-01-01 12:55:00
7:15 AM,28.4,23.0,80,29.86,10.0,SW,8.1,-,N/A,,Clear,230,2014-01-01 13:15:00
7:35 AM,30.2,23.0,75,29.85,10.0,SW,10.4,-,N/A,,Clear,220,2014-01-01 13:35:00
7:55 AM,30.2,23.0,75,29.85,10.0,SW,11.5,-,N/A,,Clear,220,2014-01-01 13:55:00
8:15 AM,30.2,23.0,75,29.86,10.0,WSW,11.5,-,N/A,,Clear,240,2014-01-01 14:15:00
8:35 AM,32.0,23.0,69,29.87,10.0,WSW,11.5,-,N/A,,Clear,240,2014-01-01 14:35:00
8:55 AM,32.0,24.8,75,29.87,10.0,WSW,9.2,-,N/A,,Clear,240,2014-01-01 14:55:00
9:15 AM,33.8,24.8,70,29.87,10.0,WSW,12.7,-,N/A,,Clear,240,2014-01-01 15:15:00
9:35 AM,35.6,24.8,65,29.88,10.0,West,11.5,-,N/A,,Clear,260,2014-01-01 15:35:00
9:55 AM,37.4,24.8,60,29.89,10.0,WSW,11.5,-,N/A,,Clear,250,2014-01-01 15:55:00
10:15 AM,41.0,26.6,57,29.91,10.0,West,10.4,-,N/A,,Clear,280,2014-01-01 16:15:00
10:35 AM,44.6,24.8,46,29.92,10.0,NNW,12.7,-,N/A,,Clear,340,2014-01-01 16:35:00
10:55 AM,46.4,24.8,43,29.93,10.0,North,15.0,21.9,N/A,,Clear,350,2014-01-01 16:55:00
11:15 AM,48.2,23.0,37,29.93,10.0,North,15.0,-,N/A,,Clear,10,2014-01-01 17:15:00
11:35 AM,48.2,23.0,37,29.95,10.0,North,17.3,20.7,N/A,,Clear,360,2014-01-01 17:35:00
11:55 AM,46.4,24.8,43,29.96,10.0,North,19.6,28.8,N/A,,Clear,350,2014-01-01 17:55:00
12:15 PM,46.4,24.8,43,29.97,10.0,North,17.3,26.5,N/A,,Clear,360,2014-01-01 18:15:00
12:35 PM,46.4,23.0,40,29.97,10.0,North,24.2,29.9,N/A,,Clear,360,2014-01-01 18:35:00
12:55 PM,46.4,23.0,40,29.98,10.0,North,21.9,28.8,N/A,,Scattered Clouds,360,2014-01-01 18:55:00
1:15 PM,44.6,24.8,46,29.98,10.0,North,23.0,28.8,N/A,,Scattered Clouds,360,2014-01-01 19:15:00
1:35 PM,42.8,24.8,49,30.01,10.0,North,19.6,25.3,N/A,,Scattered Clouds,10,2014-01-01 19:35:00
1:55 PM,44.6,23.0,43,30.01,10.0,North,21.9,29.9,N/A,,Scattered Clouds,350,2014-01-01 19:55:00
2:15 PM,42.8,23.0,46,30.02,10.0,North,10.4,-,N/A,,Clear,350,2014-01-01 20:15:00
2:35 PM,44.6,24.8,46,30.02,10.0,North,17.3,20.7,N/A,,Clear,360,2014-01-01 20:35:00
2:55 PM,44.6,26.6,49,30.03,10.0,North,12.7,21.9,N/A,,Clear,360,2014-01-01 20:55:00
3:15 PM,46.4,28.4,50,30.04,10.0,North,18.4,25.3,N/A,,Scattered Clouds,10,2014-01-01 21:15:00
3:35 PM,44.6,28.4,53,30.07,10.0,North,24.2,31.1,N/A,,Mostly Cloudy,350,2014-01-01 21:35:00
3:55 PM,41.0,28.4,61,30.08,10.0,North,17.3,27.6,N/A,,Overcast,10,2014-01-01 21:55:00
4:15 PM,41.0,28.4,61,30.11,10.0,North,23.0,28.8,N/A,,Scattered Clouds,360,2014-01-01 22:15:00
4:35 PM,37.4,26.6,65,30.13,10.0,North,21.9,27.6,N/A,,Scattered Clouds,350,2014-01-01 22:35:00
4:55 PM,35.6,24.8,65,30.14,10.0,North,19.6,32.2,N/A,,Mostly Cloudy,350,2014-01-01 22:55:00
5:15 PM,33.8,23.0,65,30.16,10.0,North,16.1,21.9,N/A,,Scattered Clouds,360,2014-01-01 23:15:00
5:35 PM,32.0,23.0,69,30.17,10.0,North,18.4,24.2,N/A,,Scattered Clouds,350,2014-01-01 23:35:00
5:55 PM,32.0,23.0,69,30.19,10.0,North,16.1,24.2,N/A,,Scattered Clouds,360,2014-01-01 23:55:00
6:15 PM,32.0,23.0,69,30.21,10.0,North,17.3,21.9,N/A,,Clear,10,2014-01-02 00:15:00
6:35 PM,30.2,21.2,69,30.23,10.0,North,12.7,-,N/A,,Clear,10,2014-01-02 00:35:00
6:55 PM,28.4,21.2,74,30.25,10.0,NNE,10.4,-,N/A,,Clear,20,2014-01-02 00:55:00
7:15 PM,28.4,21.2,74,30.25,10.0,North,15.0,20.7,N/A,,Clear,10,2014-01-02 01:15:00
7:35 PM,28.4,21.2,74,30.27,10.0,NNE,15.0,21.9,N/A,,Clear,20,2014-01-02 01:35:00
7:55 PM,28.4,21.2,74,30.30,10.0,North,12.7,-,N/A,,Clear,10,2014-01-02 01:55:00
8:15 PM,26.6,21.2,80,30.30,10.0,North,11.5,-,N/A,,Scattered Clouds,360,2014-01-02 02:15:00
8:35 PM,28.4,21.2,74,30.31,10.0,North,16.1,20.7,N/A,,Clear,360,2014-01-02 02:35:00
8:55 PM,26.6,21.2,80,30.32,10.0,North,11.5,19.6,N/A,,Scattered Clouds,360,2014-01-02 02:55:00
9:15 PM,26.6,21.2,80,30.33,10.0,North,11.5,-,N/A,,Scattered Clouds,360,2014-01-02 03:15:00
9:35 PM,26.6,21.2,80,30.35,10.0,North,12.7,-,N/A,,Scattered Clouds,360,2014-01-02 03:35:00
9:55 PM,26.6,21.2,80,30.35,10.0,North,12.7,-,N/A,,Scattered Clouds,360,2014-01-02 03:55:00
10:15 PM,26.6,21.2,80,30.36,10.0,North,13.8,-,N/A,,Clear,10,2014-01-02 04:15:00
10:35 PM,24.8,21.2,86,30.36,10.0,North,11.5,-,N/A,,Clear,360,2014-01-02 04:35:00
10:55 PM,24.8,21.2,86,30.37,10.0,North,11.5,-,N/A,,Clear,360,2014-01-02 04:55:00
11:15 PM,24.8,19.4,80,30.37,10.0,North,10.4,18.4,N/A,,Clear,10,2014-01-02 05:15:00
11:35 PM,24.8,19.4,80,30.37,10.0,North,10.4,-,N/A,,Clear,10,2014-01-02 05:35:00
11:55 PM,24.8,19.4,80,30.38,10.0,NNE,11.5,19.6,N/A,,Clear,20,2014-01-02 05:55:00